sensor_id;sensor_type;location;lat;lon;timestamp;pressure;altitude;pressure_sealevel;temperature;humidity
63204;BME280;49297;43.210;27.914;2023-03-23T00:01:22;101270.81;;;8.65;81.67
63204;BME280;49297;43.210;27.914;2023-03-23T00:03:50;101260.34;;;8.63;81.08
63204;BME280;49297;43.210;27.914;2023-03-23T00:06:17;101264.78;;;8.63;81.52
63204;BME280;49297;43.210;27.914;2023-03-23T00:08:45;101259.63;;;8.61;81.57
63204;BME280;49297;43.210;27.914;2023-03-23T00:11:18;101257.81;;;8.62;81.29
63204;BME280;49297;43.210;27.914;2023-03-23T00:13:49;101257.81;;;8.62;81.14
63204;BME280;49297;43.210;27.914;2023-03-23T00:16:23;101262.25;;;8.61;81.71
63204;BME280;49297;43.210;27.914;2023-03-23T00:19:01;101259.72;;;8.60;81.64
63204;BME280;49297;43.210;27.914;2023-03-23T00:21:33;101258.03;;;8.58;81.82
63204;BME280;49297;43.210;27.914;2023-03-23T00:26:30;101249.19;;;8.60;81.85
63204;BME280;49297;43.210;27.914;2023-03-23T00:29:00;101253.47;;;8.61;81.48
63204;BME280;49297;43.210;27.914;2023-03-23T00:31:26;101245.66;;;8.59;82.38
63204;BME280;49297;43.210;27.914;2023-03-23T00:34:03;101248.31;;;8.59;81.99
63204;BME280;49297;43.210;27.914;2023-03-23T00:36:31;101248.44;;;8.57;81.78
63204;BME280;49297;43.210;27.914;2023-03-23T00:38:58;101246.75;;;8.56;81.69
63204;BME280;49297;43.210;27.914;2023-03-23T00:41:25;101244.09;;;8.56;81.62
63204;BME280;49297;43.210;27.914;2023-03-23T00:43:55;101246.63;;;8.58;81.92
63204;BME280;49297;43.210;27.914;2023-03-23T00:46:22;101252.03;;;8.56;81.94
63204;BME280;49297;43.210;27.914;2023-03-23T00:48:48;101251.09;;;8.57;82.08
63204;BME280;49297;43.210;27.914;2023-03-23T00:51:17;101244.94;;;8.57;82.12
63204;BME280;49297;43.210;27.914;2023-03-23T00:53:43;101244.09;;;8.56;82.23
63204;BME280;49297;43.210;27.914;2023-03-23T00:56:09;101236.09;;;8.58;82.06
63204;BME280;49297;43.210;27.914;2023-03-23T00:58:35;101244.84;;;8.58;82.66
63204;BME280;49297;43.210;27.914;2023-03-23T01:01:01;101236.91;;;8.58;82.37
63204;BME280;49297;43.210;27.914;2023-03-23T01:03:29;101234.28;;;8.58;82.18
63204;BME280;49297;43.210;27.914;2023-03-23T01:05:55;101235.13;;;8.59;82.80
63204;BME280;49297;43.210;27.914;2023-03-23T01:08:23;101228.16;;;8.58;82.15
63204;BME280;49297;43.210;27.914;2023-03-23T01:10:49;101223.72;;;8.58;82.12
63204;BME280;49297;43.210;27.914;2023-03-23T01:13:16;101229.97;;;8.57;82.65
63204;BME280;49297;43.210;27.914;2023-03-23T01:15:42;101228.28;;;8.56;82.79
63204;BME280;49297;43.210;27.914;2023-03-23T01:18:09;101223.81;;;8.57;82.26
63204;BME280;49297;43.210;27.914;2023-03-23T01:20:36;101228.28;;;8.56;82.63
63204;BME280;49297;43.210;27.914;2023-03-23T01:23:03;101223.00;;;8.56;82.41
63204;BME280;49297;43.210;27.914;2023-03-23T01:25:31;101229.97;;;8.57;81.97
63204;BME280;49297;43.210;27.914;2023-03-23T01:27:57;101225.53;;;8.58;82.10
63204;BME280;49297;43.210;27.914;2023-03-23T01:30:24;101232.47;;;8.59;82.38
63204;BME280;49297;43.210;27.914;2023-03-23T01:32:50;101230.81;;;8.58;82.59
63204;BME280;49297;43.210;27.914;2023-03-23T01:35:17;101226.34;;;8.58;82.64
63204;BME280;49297;43.210;27.914;2023-03-23T01:37:43;101230.69;;;8.60;82.11
63204;BME280;49297;43.210;27.914;2023-03-23T01:40:09;101234.28;;;8.58;82.06
63204;BME280;49297;43.210;27.914;2023-03-23T01:42:37;101229.84;;;8.59;82.53
63204;BME280;49297;43.210;27.914;2023-03-23T01:45:31;101229.84;;;8.59;82.41
63204;BME280;49297;43.210;27.914;2023-03-23T01:48:03;101231.63;;;8.58;82.76
63204;BME280;49297;43.210;27.914;2023-03-23T01:50:37;101233.44;;;8.58;82.93
63204;BME280;49297;43.210;27.914;2023-03-23T01:53:07;101236.09;;;8.58;82.42
63204;BME280;49297;43.210;27.914;2023-03-23T01:55:35;101231.63;;;8.58;82.39
63204;BME280;49297;43.210;27.914;2023-03-23T01:58:02;101233.34;;;8.60;82.17
63204;BME280;49297;43.210;27.914;2023-03-23T02:00:29;101231.53;;;8.60;82.80
63204;BME280;49297;43.210;27.914;2023-03-23T02:02:56;101227.94;;;8.61;82.84
63204;BME280;49297;43.210;27.914;2023-03-23T02:05:34;101231.53;;;8.60;82.72
63204;BME280;49297;43.210;27.914;2023-03-23T02:08:04;101232.38;;;8.61;82.63
63204;BME280;49297;43.210;27.914;2023-03-23T02:10:33;101231.41;;;8.62;82.90
63204;BME280;49297;43.210;27.914;2023-03-23T02:13:00;101232.97;;;8.64;82.38
63204;BME280;49297;43.210;27.914;2023-03-23T02:15:33;101237.44;;;8.64;82.45
63204;BME280;49297;43.210;27.914;2023-03-23T02:26:17;101240.06;;;8.64;81.99
63204;BME280;49297;43.210;27.914;2023-03-23T02:29:06;101240.91;;;8.64;82.40
63204;BME280;49297;43.210;27.914;2023-03-23T02:34:20;101239.34;;;8.62;82.63
63204;BME280;49297;43.210;27.914;2023-03-23T02:37:04;101243.66;;;8.63;82.29
63204;BME280;49297;43.210;27.914;2023-03-23T02:42:07;101241.00;;;8.63;82.63
63204;BME280;49297;43.210;27.914;2023-03-23T02:44:37;101250.00;;;8.60;82.25
63204;BME280;49297;43.210;27.914;2023-03-23T02:47:07;101245.91;;;8.56;81.71
63204;BME280;49297;43.210;27.914;2023-03-23T02:49:36;101246.84;;;8.55;82.28
63204;BME280;49297;43.210;27.914;2023-03-23T02:52:10;101257.41;;;8.55;81.79
63204;BME280;49297;43.210;27.914;2023-03-23T02:54:42;101255.59;;;8.55;82.06
63204;BME280;49297;43.210;27.914;2023-03-23T02:57:10;101259.22;;;8.54;81.85
63204;BME280;49297;43.210;27.914;2023-03-23T02:59:36;101260.78;;;8.57;82.60
63204;BME280;49297;43.210;27.914;2023-03-23T03:02:09;101254.66;;;8.56;82.40
63204;BME280;49297;43.210;27.914;2023-03-23T03:04:39;101261.50;;;8.59;82.22
63204;BME280;49297;43.210;27.914;2023-03-23T03:07:30;101262.38;;;8.60;82.46
63204;BME280;49297;43.210;27.914;2023-03-23T03:10:09;101257.94;;;8.60;82.01
63204;BME280;49297;43.210;27.914;2023-03-23T03:18:07;101265.13;;;8.58;82.28
63204;BME280;49297;43.210;27.914;2023-03-23T03:20:41;101262.47;;;8.58;81.81
63204;BME280;49297;43.210;27.914;2023-03-23T03:23:10;101268.47;;;8.60;81.92
63204;BME280;49297;43.210;27.914;2023-03-23T03:25:39;101261.50;;;8.59;82.21
63204;BME280;49297;43.210;27.914;2023-03-23T03:28:07;101265.84;;;8.60;81.88
63204;BME280;49297;43.210;27.914;2023-03-23T03:30:35;101265.00;;;8.60;82.14
63204;BME280;49297;43.210;27.914;2023-03-23T03:33:02;101262.38;;;8.60;82.02
63204;BME280;49297;43.210;27.914;2023-03-23T03:35:29;101267.66;;;8.60;81.99
63204;BME280;49297;43.210;27.914;2023-03-23T03:37:57;101262.38;;;8.60;81.76
63204;BME280;49297;43.210;27.914;2023-03-23T03:40:23;101271.13;;;8.60;82.03
63204;BME280;49297;43.210;27.914;2023-03-23T03:42:50;101272.94;;;8.60;82.41
63204;BME280;49297;43.210;27.914;2023-03-23T03:45:18;101271.22;;;8.58;82.29
63204;BME280;49297;43.210;27.914;2023-03-23T03:47:45;101271.22;;;8.58;81.67
63204;BME280;49297;43.210;27.914;2023-03-23T03:50:10;101268.69;;;8.57;82.14
63204;BME280;49297;43.210;27.914;2023-03-23T03:52:37;101271.34;;;8.57;81.86
63204;BME280;49297;43.210;27.914;2023-03-23T03:55:05;101267.88;;;8.56;81.76
63204;BME280;49297;43.210;27.914;2023-03-23T03:57:32;101276.00;;;8.53;81.69
63204;BME280;49297;43.210;27.914;2023-03-23T03:59:58;101278.75;;;8.52;82.09
63204;BME280;49297;43.210;27.914;2023-03-23T04:02:24;101279.72;;;8.51;82.01
63204;BME280;49297;43.210;27.914;2023-03-23T04:04:50;101279.00;;;8.49;82.12
63204;BME280;49297;43.210;27.914;2023-03-23T04:07:18;101285.09;;;8.49;81.99
63204;BME280;49297;43.210;27.914;2023-03-23T04:09:45;101275.38;;;8.50;81.65
63204;BME280;49297;43.210;27.914;2023-03-23T04:12:13;101284.16;;;8.50;82.20
63204;BME280;49297;43.210;27.914;2023-03-23T04:14:39;101283.28;;;8.50;81.85
63204;BME280;49297;43.210;27.914;2023-03-23T04:17:04;101282.56;;;8.48;82.23
63204;BME280;49297;43.210;27.914;2023-03-23T04:19:32;101283.41;;;8.48;81.90
63204;BME280;49297;43.210;27.914;2023-03-23T04:21:59;101282.47;;;8.49;81.49
63204;BME280;49297;43.210;27.914;2023-03-23T04:24:25;101279.81;;;8.49;82.32
63204;BME280;49297;43.210;27.914;2023-03-23T04:26:53;101281.53;;;8.50;82.83
63204;BME280;49297;43.210;27.914;2023-03-23T04:29:20;101289.44;;;8.50;82.86
63204;BME280;49297;43.210;27.914;2023-03-23T04:31:45;101291.09;;;8.51;82.57
63204;BME280;49297;43.210;27.914;2023-03-23T04:34:11;101285.81;;;8.51;82.36
63204;BME280;49297;43.210;27.914;2023-03-23T04:36:39;101292.91;;;8.51;82.57
63204;BME280;49297;43.210;27.914;2023-03-23T04:39:06;101296.38;;;8.51;82.79
63204;BME280;49297;43.210;27.914;2023-03-23T04:41:36;101299.03;;;8.51;82.60
63204;BME280;49297;43.210;27.914;2023-03-23T04:44:03;101301.56;;;8.53;82.12
63204;BME280;49297;43.210;27.914;2023-03-23T04:46:30;101297.84;;;8.55;82.58
63204;BME280;49297;43.210;27.914;2023-03-23T04:48:56;101295.34;;;8.54;82.31
63204;BME280;49297;43.210;27.914;2023-03-23T04:51:25;101295.97;;;8.57;82.01
63204;BME280;49297;43.210;27.914;2023-03-23T04:53:52;101305.66;;;8.57;82.33
63204;BME280;49297;43.210;27.914;2023-03-23T04:56:19;101302.06;;;8.58;82.46
63204;BME280;49297;43.210;27.914;2023-03-23T04:58:45;101300.38;;;8.57;82.21
63204;BME280;49297;43.210;27.914;2023-03-23T05:01:11;101304.72;;;8.58;81.96
63204;BME280;49297;43.210;27.914;2023-03-23T05:03:44;101310.72;;;8.60;82.17
63204;BME280;49297;43.210;27.914;2023-03-23T05:06:10;101307.25;;;8.60;82.36
63204;BME280;49297;43.210;27.914;2023-03-23T05:08:36;101318.53;;;8.62;82.00
63204;BME280;49297;43.210;27.914;2023-03-23T05:11:06;101321.91;;;8.64;82.26
63204;BME280;49297;43.210;27.914;2023-03-23T05:13:32;101321.06;;;8.63;82.22
63204;BME280;49297;43.210;27.914;2023-03-23T05:15:58;101325.25;;;8.66;81.82
63204;BME280;49297;43.210;27.914;2023-03-23T05:18:24;101326.97;;;8.67;82.25
63204;BME280;49297;43.210;27.914;2023-03-23T05:20:51;101331.63;;;8.63;81.38
63204;BME280;49297;43.210;27.914;2023-03-23T05:23:18;101323.59;;;8.65;81.66
63204;BME280;49297;43.210;27.914;2023-03-23T05:25:53;101326.75;;;8.70;82.03
63204;BME280;49297;43.210;27.914;2023-03-23T05:28:20;101330.84;;;8.74;82.06
63204;BME280;49297;43.210;27.914;2023-03-23T05:30:48;101336.66;;;8.79;82.16
63204;BME280;49297;43.210;27.914;2023-03-23T05:33:14;101332.94;;;8.82;81.91
63204;BME280;49297;43.210;27.914;2023-03-23T05:35:40;101335.47;;;8.83;81.79
63204;BME280;49297;43.210;27.914;2023-03-23T05:38:06;101334.53;;;8.84;81.97
63204;BME280;49297;43.210;27.914;2023-03-23T05:40:32;101334.38;;;8.86;81.27
63204;BME280;49297;43.210;27.914;2023-03-23T05:42:57;101344.72;;;8.89;81.86
63204;BME280;49297;43.210;27.914;2023-03-23T05:45:25;101344.50;;;8.92;81.61
63204;BME280;49297;43.210;27.914;2023-03-23T05:47:51;101349.78;;;8.92;81.87
63204;BME280;49297;43.210;27.914;2023-03-23T05:50:18;101350.53;;;8.94;81.83
63204;BME280;49297;43.210;27.914;2023-03-23T05:52:44;101358.34;;;8.95;81.35
63204;BME280;49297;43.210;27.914;2023-03-23T05:55:13;101348.72;;;8.94;81.83
63204;BME280;49297;43.210;27.914;2023-03-23T05:57:40;101350.31;;;8.97;81.31
63204;BME280;49297;43.210;27.914;2023-03-23T06:00:06;101352.72;;;9.00;81.35
63204;BME280;49297;43.210;27.914;2023-03-23T06:02:37;101356.94;;;9.03;81.15
63204;BME280;49297;43.210;27.914;2023-03-23T06:05:03;101355.84;;;9.05;80.89
63204;BME280;49297;43.210;27.914;2023-03-23T06:07:29;101361.75;;;9.09;81.58
63204;BME280;49297;43.210;27.914;2023-03-23T06:09:55;101366.09;;;9.10;81.78
63204;BME280;49297;43.210;27.914;2023-03-23T06:12:21;101363.34;;;9.11;81.18
63204;BME280;49297;43.210;27.914;2023-03-23T06:14:47;101364.06;;;9.13;81.45
63204;BME280;49297;43.210;27.914;2023-03-23T06:17:16;101359.63;;;9.14;81.30
63204;BME280;49297;43.210;27.914;2023-03-23T06:19:43;101364.81;;;9.15;81.30
63204;BME280;49297;43.210;27.914;2023-03-23T06:22:09;101371.69;;;9.18;81.04
63204;BME280;49297;43.210;27.914;2023-03-23T06:24:36;101374.94;;;9.22;80.96
63204;BME280;49297;43.210;27.914;2023-03-23T06:27:01;101373.84;;;9.24;80.93
63204;BME280;49297;43.210;27.914;2023-03-23T06:29:28;101379.03;;;9.26;80.59
63204;BME280;49297;43.210;27.914;2023-03-23T06:31:59;101384.31;;;9.26;81.25
63204;BME280;49297;43.210;27.914;2023-03-23T06:34:26;101387.91;;;9.25;81.01
63204;BME280;49297;43.210;27.914;2023-03-23T06:36:52;101385.25;;;9.25;80.62
63204;BME280;49297;43.210;27.914;2023-03-23T06:39:19;101388.97;;;9.22;80.28
63204;BME280;49297;43.210;27.914;2023-03-23T06:41:44;101380.84;;;9.25;80.92
63204;BME280;49297;43.210;27.914;2023-03-23T06:44:10;101385.88;;;9.28;81.19
63204;BME280;49297;43.210;27.914;2023-03-23T06:46:39;101387.47;;;9.31;80.64
63204;BME280;49297;43.210;27.914;2023-03-23T06:49:07;101392.53;;;9.34;80.57
63204;BME280;49297;43.210;27.914;2023-03-23T06:51:33;101393.25;;;9.36;80.96
63204;BME280;49297;43.210;27.914;2023-03-23T06:53:59;101397.47;;;9.39;80.56
63204;BME280;49297;43.210;27.914;2023-03-23T06:56:25;101399.06;;;9.41;81.13
63204;BME280;49297;43.210;27.914;2023-03-23T06:58:51;101404.34;;;9.41;80.51
63204;BME280;49297;43.210;27.914;2023-03-23T07:01:18;101398.19;;;9.41;80.70
63204;BME280;49297;43.210;27.914;2023-03-23T07:03:43;101401.56;;;9.43;80.48
63204;BME280;49297;43.210;27.914;2023-03-23T07:06:10;101409.25;;;9.46;80.64
63204;BME280;49297;43.210;27.914;2023-03-23T07:08:36;101400.41;;;9.47;80.30
63204;BME280;49297;43.210;27.914;2023-03-23T07:11:03;101401.00;;;9.50;80.23
63204;BME280;49297;43.210;27.914;2023-03-23T07:13:29;101401.72;;;9.52;80.45
63204;BME280;49297;43.210;27.914;2023-03-23T07:15:55;101411.00;;;9.58;80.80
63204;BME280;49297;43.210;27.914;2023-03-23T07:18:21;101402.84;;;9.61;80.18
63204;BME280;49297;43.210;27.914;2023-03-23T07:20:51;101407.66;;;9.67;80.37
63204;BME280;49297;43.210;27.914;2023-03-23T07:23:18;101406.50;;;9.71;80.31
63204;BME280;49297;43.210;27.914;2023-03-23T07:25:45;101410.38;;;9.79;80.54
63204;BME280;49297;43.210;27.914;2023-03-23T07:28:12;101408.09;;;9.85;80.64
63204;BME280;49297;43.210;27.914;2023-03-23T07:30:38;101411.00;;;9.94;80.64
63204;BME280;49297;43.210;27.914;2023-03-23T07:33:06;101414.25;;;9.97;80.18
63204;BME280;49297;43.210;27.914;2023-03-23T07:35:32;101410.88;;;9.95;79.77
63204;BME280;49297;43.210;27.914;2023-03-23T07:37:58;101407.41;;;9.95;80.05
63204;BME280;49297;43.210;27.914;2023-03-23T07:40:26;101402.22;;;9.93;79.72
63204;BME280;49297;43.210;27.914;2023-03-23T07:42:55;101408.13;;;9.97;79.80
63204;BME280;49297;43.210;27.914;2023-03-23T07:45:25;101398.88;;;10.02;79.11
63204;BME280;49297;43.210;27.914;2023-03-23T07:47:52;101405.72;;;10.05;79.22
63204;BME280;49297;43.210;27.914;2023-03-23T07:50:19;101405.38;;;10.09;78.88
63204;BME280;49297;43.210;27.914;2023-03-23T07:52:56;101407.31;;;10.19;78.89
63204;BME280;49297;43.210;27.914;2023-03-23T07:55:30;101406.13;;;10.23;78.55
63204;BME280;49297;43.210;27.914;2023-03-23T07:57:56;101411.78;;;10.29;78.39
63204;BME280;49297;43.210;27.914;2023-03-23T08:00:23;101414.47;;;10.41;77.86
63204;BME280;49297;43.210;27.914;2023-03-23T08:02:52;101411.72;;;10.54;78.14
63204;BME280;49297;43.210;27.914;2023-03-23T08:05:19;101422.41;;;10.63;77.59
63204;BME280;49297;43.210;27.914;2023-03-23T08:07:46;101417.38;;;10.72;77.81
63204;BME280;49297;43.210;27.914;2023-03-23T08:10:15;101415.91;;;10.79;77.61
63204;BME280;49297;43.210;27.914;2023-03-23T08:12:43;101419.16;;;10.82;77.16
63204;BME280;49297;43.210;27.914;2023-03-23T08:15:11;101421.56;;;10.85;76.84
63204;BME280;49297;43.210;27.914;2023-03-23T08:17:39;101423.00;;;10.90;77.05
63204;BME280;49297;43.210;27.914;2023-03-23T08:20:06;101424.44;;;10.94;76.81
63204;BME280;49297;43.210;27.914;2023-03-23T08:22:34;101420.56;;;10.98;76.53
63204;BME280;49297;43.210;27.914;2023-03-23T08:25:02;101425.88;;;10.98;76.26
63204;BME280;49297;43.210;27.914;2023-03-23T08:27:29;101424.19;;;10.97;76.21
63204;BME280;49297;43.210;27.914;2023-03-23T08:29:55;101432.63;;;10.91;76.22
63204;BME280;49297;43.210;27.914;2023-03-23T08:32:21;101430.34;;;10.86;76.15
63204;BME280;49297;43.210;27.914;2023-03-23T08:34:48;101428.28;;;10.78;76.25
63204;BME280;49297;43.210;27.914;2023-03-23T08:37:14;101420.72;;;10.74;76.14
63204;BME280;49297;43.210;27.914;2023-03-23T08:39:40;101433.75;;;10.77;75.78
63204;BME280;49297;43.210;27.914;2023-03-23T08:42:08;101434.22;;;10.71;74.83
63204;BME280;49297;43.210;27.914;2023-03-23T08:44:35;101440.00;;;10.64;74.75
63204;BME280;49297;43.210;27.914;2023-03-23T08:47:02;101440.84;;;10.65;74.93
63204;BME280;49297;43.210;27.914;2023-03-23T08:49:31;101440.84;;;10.65;74.58
63204;BME280;49297;43.210;27.914;2023-03-23T08:51:59;101441.78;;;10.64;74.54
63204;BME280;49297;43.210;27.914;2023-03-23T08:54:25;101433.25;;;10.72;74.73
63204;BME280;49297;43.210;27.914;2023-03-23T08:56:50;101433.34;;;10.81;74.97
63204;BME280;49297;43.210;27.914;2023-03-23T08:59:16;101430.13;;;10.89;74.89
63204;BME280;49297;43.210;27.914;2023-03-23T09:01:42;101437.44;;;10.97;74.85
63204;BME280;49297;43.210;27.914;2023-03-23T09:04:09;101422.34;;;11.09;74.72
63204;BME280;49297;43.210;27.914;2023-03-23T09:06:36;101431.97;;;11.21;74.58
63204;BME280;49297;43.210;27.914;2023-03-23T09:09:03;101434.84;;;11.29;74.39
63204;BME280;49297;43.210;27.914;2023-03-23T09:11:36;101428.19;;;11.35;74.18
63204;BME280;49297;43.210;27.914;2023-03-23T09:14:04;101429.78;;;11.37;73.98
63204;BME280;49297;43.210;27.914;2023-03-23T09:16:30;101426.97;;;11.39;73.84
63204;BME280;49297;43.210;27.914;2023-03-23T09:18:56;101423.72;;;11.35;73.97
63204;BME280;49297;43.210;27.914;2023-03-23T09:21:24;101429.53;;;11.29;73.88
63204;BME280;49297;43.210;27.914;2023-03-23T09:23:51;101426.53;;;11.22;73.96
63204;BME280;49297;43.210;27.914;2023-03-23T09:26:17;101431.00;;;11.22;74.27
63204;BME280;49297;43.210;27.914;2023-03-23T09:28:43;101422.56;;;11.28;74.41
63204;BME280;49297;43.210;27.914;2023-03-23T09:31:11;101426.84;;;11.40;74.20
63204;BME280;49297;43.210;27.914;2023-03-23T09:33:38;101420.94;;;11.48;74.42
63204;BME280;49297;43.210;27.914;2023-03-23T09:36:05;101425.97;;;11.51;74.15
63204;BME280;49297;43.210;27.914;2023-03-23T09:38:33;101430.44;;;11.51;74.24
63204;BME280;49297;43.210;27.914;2023-03-23T09:44:22;101436.03;;;11.36;74.13
63204;BME280;49297;43.210;27.914;2023-03-23T09:49:56;101430.97;;;11.33;74.12
63204;BME280;49297;43.210;27.914;2023-03-23T09:52:42;101439.53;;;11.37;73.82
63204;BME280;49297;43.210;27.914;2023-03-23T09:55:13;101430.50;;;11.39;74.01
63204;BME280;49297;43.210;27.914;2023-03-23T10:00:22;101431.03;;;11.54;73.71
63204;BME280;49297;43.210;27.914;2023-03-23T10:08:11;101416.91;;;11.86;73.06
63204;BME280;49297;43.210;27.914;2023-03-23T10:11:04;101416.41;;;11.92;72.55
63204;BME280;49297;43.210;27.914;2023-03-23T10:13:40;101416.34;;;12.04;72.46
63204;BME280;49297;43.210;27.914;2023-03-23T10:16:15;101414.44;;;12.15;72.08
63204;BME280;49297;43.210;27.914;2023-03-23T10:19:38;101416.94;;;12.28;71.90
63204;BME280;49297;43.210;27.914;2023-03-23T10:21:42;101412.09;;;12.43;71.76
63204;BME280;49297;43.210;27.914;2023-03-23T10:24:14;101411.47;;;12.61;71.46
63204;BME280;49297;43.210;27.914;2023-03-23T10:29:57;101408.34;;;12.86;70.13
63204;BME280;49297;43.210;27.914;2023-03-23T10:32:41;101412.81;;;12.86;69.82
63204;BME280;49297;43.210;27.914;2023-03-23T10:35:23;101413.06;;;12.83;69.63
63204;BME280;49297;43.210;27.914;2023-03-23T10:37:59;101414.72;;;12.74;69.38
63204;BME280;49297;43.210;27.914;2023-03-23T10:40:29;101404.78;;;12.66;69.14
63204;BME280;49297;43.210;27.914;2023-03-23T10:42:57;101405.75;;;12.65;69.26
63204;BME280;49297;43.210;27.914;2023-03-23T10:45:28;101407.88;;;12.71;68.86
63204;BME280;49297;43.210;27.914;2023-03-23T10:48:05;101404.53;;;12.79;68.71
63204;BME280;49297;43.210;27.914;2023-03-23T10:50:37;101407.63;;;12.84;68.80
63204;BME280;49297;43.210;27.914;2023-03-23T10:53:22;101390.44;;;12.88;68.22
63204;BME280;49297;43.210;27.914;2023-03-23T10:55:49;101390.44;;;12.88;68.28
63204;BME280;49297;43.210;27.914;2023-03-23T10:58:28;101394.59;;;12.81;68.14
63204;BME280;49297;43.210;27.914;2023-03-23T11:00:55;101393.91;;;12.79;68.16
63204;BME280;49297;43.210;27.914;2023-03-23T11:05:57;101395.69;;;12.69;68.13
63204;BME280;49297;43.210;27.914;2023-03-23T11:08:29;101393.28;;;12.56;67.93
63204;BME280;49297;43.210;27.914;2023-03-23T11:11:14;101379.25;;;12.44;67.74
63204;BME280;49297;43.210;27.914;2023-03-23T11:13:49;101393.63;;;12.42;67.64
63204;BME280;49297;43.210;27.914;2023-03-23T11:16:31;101385.34;;;12.35;68.16
63204;BME280;49297;43.210;27.914;2023-03-23T11:19:12;101380.72;;;12.27;68.43
63204;BME280;49297;43.210;27.914;2023-03-23T11:21:39;101384.63;;;12.23;68.17
63204;BME280;49297;43.210;27.914;2023-03-23T11:24:05;101377.16;;;12.17;68.12
63204;BME280;49297;43.210;27.914;2023-03-23T11:26:34;101377.28;;;12.15;68.47
63204;BME280;49297;43.210;27.914;2023-03-23T11:29:11;101374.78;;;12.14;68.51
63204;BME280;49297;43.210;27.914;2023-03-23T11:31:49;101374.06;;;12.12;68.30
63204;BME280;49297;43.210;27.914;2023-03-23T11:34:25;101380.41;;;11.99;68.36
63204;BME280;49297;43.210;27.914;2023-03-23T11:36:54;101374.69;;;11.94;68.64
63204;BME280;49297;43.210;27.914;2023-03-23T11:39:29;101373.69;;;11.95;68.94
63204;BME280;49297;43.210;27.914;2023-03-23T11:41:58;101373.69;;;11.95;68.93
63204;BME280;49297;43.210;27.914;2023-03-23T11:44:31;101384.31;;;11.95;69.13
63204;BME280;49297;43.210;27.914;2023-03-23T11:47:07;101382.34;;;11.97;69.37
63204;BME280;49297;43.210;27.914;2023-03-23T11:49:47;101372.16;;;11.93;69.28
63204;BME280;49297;43.210;27.914;2023-03-23T11:55:01;101372.25;;;11.70;69.07
63204;BME280;49297;43.210;27.914;2023-03-23T11:57:31;101374.44;;;11.65;69.02
63204;BME280;49297;43.210;27.914;2023-03-23T11:59:57;101367.47;;;11.64;69.20
63204;BME280;49297;43.210;27.914;2023-03-23T12:18:58;101354.06;;;11.45;68.64
63204;BME280;49297;43.210;27.914;2023-03-23T12:21:55;101359.75;;;11.40;68.81
63204;BME280;49297;43.210;27.914;2023-03-23T12:27:05;101360.63;;;11.29;68.87
63204;BME280;49297;43.210;27.914;2023-03-23T12:37:59;101354.44;;;11.08;69.88
63204;BME280;49297;43.210;27.914;2023-03-23T12:43:18;101354.09;;;11.01;70.38
63204;BME280;49297;43.210;27.914;2023-03-23T12:46:27;101357.25;;;10.95;70.55
63204;BME280;49297;43.210;27.914;2023-03-23T12:49:06;101356.53;;;10.93;70.67
63204;BME280;49297;43.210;27.914;2023-03-23T12:51:49;101350.88;;;10.86;70.84
63204;BME280;49297;43.210;27.914;2023-03-23T12:57:07;101349.34;;;10.72;71.06
63204;BME280;49297;43.210;27.914;2023-03-23T12:59:57;101348.50;;;10.72;71.43
63204;BME280;49297;43.210;27.914;2023-03-23T13:02:37;101345.88;;;10.72;71.38
63204;BME280;49297;43.210;27.914;2023-03-23T13:07:47;101337.44;;;10.66;71.05
63204;BME280;49297;43.210;27.914;2023-03-23T13:10:28;101332.16;;;10.66;70.89
63204;BME280;49297;43.210;27.914;2023-03-23T13:12:55;101337.44;;;10.66;70.91
63204;BME280;49297;43.210;27.914;2023-03-23T13:15:48;101328.50;;;10.67;70.74
63204;BME280;49297;43.210;27.914;2023-03-23T13:18:42;101330.28;;;10.78;70.71
63204;BME280;49297;43.210;27.914;2023-03-23T13:21:32;101326.16;;;10.97;70.40
63204;BME280;49297;43.210;27.914;2023-03-23T13:24:05;101331.19;;;11.11;70.47
63204;BME280;49297;43.210;27.914;2023-03-23T13:26:37;101326.09;;;11.19;70.01
63204;BME280;49297;43.210;27.914;2023-03-23T13:29:18;101323.50;;;11.29;69.81
63204;BME280;49297;43.210;27.914;2023-03-23T13:31:46;101316.59;;;11.38;69.66
63204;BME280;49297;43.210;27.914;2023-03-23T13:34:26;101323.06;;;11.45;69.21
63204;BME280;49297;43.210;27.914;2023-03-23T13:37:03;101314.75;;;11.50;69.04
63204;BME280;49297;43.210;27.914;2023-03-23T13:39:49;101310.63;;;11.57;68.86
63204;BME280;49297;43.210;27.914;2023-03-23T14:03:05;101313.06;;;12.62;65.51
63204;BME280;49297;43.210;27.914;2023-03-23T14:10:55;101315.22;;;12.37;65.98
63204;BME280;49297;43.210;27.914;2023-03-23T14:16:24;101318.91;;;12.15;66.32
63204;BME280;49297;43.210;27.914;2023-03-23T14:18:58;101326.75;;;11.96;66.40
63204;BME280;49297;43.210;27.914;2023-03-23T14:21:40;101320.22;;;11.79;66.73
63204;BME280;49297;43.210;27.914;2023-03-23T14:24:18;101324.50;;;11.70;67.11
63204;BME280;49297;43.210;27.914;2023-03-23T14:26:45;101324.03;;;11.65;67.30
63204;BME280;49297;43.210;27.914;2023-03-23T14:29:12;101325.28;;;11.61;67.66
63204;BME280;49297;43.210;27.914;2023-03-23T14:31:39;101322.19;;;11.56;68.16
63204;BME280;49297;43.210;27.914;2023-03-23T14:34:19;101327.03;;;11.51;68.59
63204;BME280;49297;43.210;27.914;2023-03-23T14:36:45;101332.72;;;11.46;68.76
63204;BME280;49297;43.210;27.914;2023-03-23T14:41:54;101334.59;;;11.34;69.21
63204;BME280;49297;43.210;27.914;2023-03-23T14:44:24;101337.72;;;11.28;69.53
63204;BME280;49297;43.210;27.914;2023-03-23T14:46:52;101342.72;;;11.21;69.96
63204;BME280;49297;43.210;27.914;2023-03-23T14:49:32;101340.56;;;11.15;70.22
63204;BME280;49297;43.210;27.914;2023-03-23T14:52:13;101344.66;;;11.08;70.15